sensor_id;sensor_type;location;lat;lon;timestamp;pressure;altitude;pressure_sealevel;temperature;humidity
34328;BME280;20588;48.840;10.064;2023-11-19T00:00:22;96398.53;;;7.57;100.00
34328;BME280;20588;48.840;10.064;2023-11-19T00:02:49;96387.31;;;7.58;100.00
34328;BME280;20588;48.840;10.064;2023-11-19T00:05:15;96396.56;;;7.59;100.00
34328;BME280;20588;48.840;10.064;2023-11-19T00:07:41;96393.78;;;7.61;100.00
34328;BME280;20588;48.840;10.064;2023-11-19T00:10:09;96379.84;;;7.63;100.00
34328;BME280;20588;48.840;10.064;2023-11-19T00:12:37;96374.31;;;7.66;100.00
34328;BME280;20588;48.840;10.064;2023-11-19T00:15:03;96377.66;;;7.73;100.00
34328;BME280;20588;48.840;10.064;2023-11-19T00:17:30;96378.66;;;7.72;100.00
34328;BME280;20588;48.840;10.064;2023-11-19T00:19:56;96384.75;;;7.71;100.00
34328;BME280;20588;48.840;10.064;2023-11-19T00:22:22;96368.41;;;7.79;100.00
34328;BME280;20588;48.840;10.064;2023-11-19T00:24:48;96369.59;;;7.96;100.00
34328;BME280;20588;48.840;10.064;2023-11-19T00:27:15;96361.91;;;8.15;100.00
34328;BME280;20588;48.840;10.064;2023-11-19T00:29:43;96362.13;;;8.40;100.00
34328;BME280;20588;48.840;10.064;2023-11-19T00:32:10;96367.41;;;8.58;100.00
34328;BME280;20588;48.840;10.064;2023-11-19T00:34:37;96357.31;;;8.69;100.00
34328;BME280;20588;48.840;10.064;2023-11-19T00:37:03;96353.91;;;8.82;100.00
34328;BME280;20588;48.840;10.064;2023-11-19T00:39:29;96345.00;;;8.91;100.00
34328;BME280;20588;48.840;10.064;2023-11-19T00:41:55;96339.66;;;8.99;100.00
34328;BME280;20588;48.840;10.064;2023-11-19T00:44:21;96341.59;;;9.03;100.00
34328;BME280;20588;48.840;10.064;2023-11-19T00:46:47;96326.59;;;9.07;100.00
34328;BME280;20588;48.840;10.064;2023-11-19T00:49:13;96326.19;;;9.10;100.00
34328;BME280;20588;48.840;10.064;2023-11-19T00:51:41;96335.25;;;9.12;100.00
34328;BME280;20588;48.840;10.064;2023-11-19T00:54:07;96331.06;;;9.18;100.00
34328;BME280;20588;48.840;10.064;2023-11-19T00:56:33;96334.63;;;9.17;100.00
34328;BME280;20588;48.840;10.064;2023-11-19T00:58:59;96340.34;;;9.19;100.00
34328;BME280;20588;48.840;10.064;2023-11-19T01:01:26;96343.47;;;9.21;100.00
34328;BME280;20588;48.840;10.064;2023-11-19T01:03:52;96338.72;;;9.25;100.00
34328;BME280;20588;48.840;10.064;2023-11-19T01:06:28;96350.97;;;9.23;100.00
34328;BME280;20588;48.840;10.064;2023-11-19T01:08:54;96342.66;;;9.27;100.00
34328;BME280;20588;48.840;10.064;2023-11-19T01:11:22;96340.69;;;9.29;100.00
34328;BME280;20588;48.840;10.064;2023-11-19T01:13:48;96335.53;;;9.29;100.00
34328;BME280;20588;48.840;10.064;2023-11-19T01:16:15;96338.50;;;9.33;100.00
34328;BME280;20588;48.840;10.064;2023-11-19T01:18:41;96333.56;;;9.31;100.00
34328;BME280;20588;48.840;10.064;2023-11-19T01:21:07;96328.59;;;9.36;100.00
34328;BME280;20588;48.840;10.064;2023-11-19T01:23:34;96327.41;;;9.39;100.00
34328;BME280;20588;48.840;10.064;2023-11-19T01:26:00;96326.19;;;9.41;100.00
34328;BME280;20588;48.840;10.064;2023-11-19T01:28:26;96329.56;;;9.42;100.00
34328;BME280;20588;48.840;10.064;2023-11-19T01:30:52;96328.56;;;9.43;100.00
34328;BME280;20588;48.840;10.064;2023-11-19T01:33:19;96321.84;;;9.42;100.00
34328;BME280;20588;48.840;10.064;2023-11-19T01:35:45;96315.13;;;9.41;100.00
34328;BME280;20588;48.840;10.064;2023-11-19T01:38:11;96315.72;;;9.43;100.00
34328;BME280;20588;48.840;10.064;2023-11-19T01:40:37;96316.72;;;9.42;100.00
34328;BME280;20588;48.840;10.064;2023-11-19T01:43:04;96310.56;;;9.43;100.00
34328;BME280;20588;48.840;10.064;2023-11-19T01:45:31;96304.22;;;9.45;100.00
34328;BME280;20588;48.840;10.064;2023-11-19T01:48:00;96309.91;;;9.54;100.00
34328;BME280;20588;48.840;10.064;2023-11-19T01:50:28;96299.22;;;9.57;100.00
34328;BME280;20588;48.840;10.064;2023-11-19T01:52:54;96295.47;;;9.53;100.00
34328;BME280;20588;48.840;10.064;2023-11-19T01:55:24;96307.19;;;9.49;100.00
34328;BME280;20588;48.840;10.064;2023-11-19T01:57:51;96301.25;;;9.48;100.00
34328;BME280;20588;48.840;10.064;2023-11-19T02:00:19;96304.63;;;9.49;100.00
34328;BME280;20588;48.840;10.064;2023-11-19T02:02:46;96297.50;;;9.51;100.00
34328;BME280;20588;48.840;10.064;2023-11-19T02:05:14;96301.59;;;9.58;100.00
34328;BME280;20588;48.840;10.064;2023-11-19T02:07:40;96293.50;;;9.55;100.00
34328;BME280;20588;48.840;10.064;2023-11-19T02:10:07;96306.75;;;9.52;100.00
34328;BME280;20588;48.840;10.064;2023-11-19T02:12:40;96291.34;;;9.52;100.00
34328;BME280;20588;48.840;10.064;2023-11-19T02:15:09;96291.97;;;9.47;100.00
34328;BME280;20588;48.840;10.064;2023-11-19T02:17:35;96297.28;;;9.52;100.00
34328;BME280;20588;48.840;10.064;2023-11-19T02:20:04;96296.50;;;9.52;100.00
34328;BME280;20588;48.840;10.064;2023-11-19T02:22:38;96289.16;;;9.55;100.00
34328;BME280;20588;48.840;10.064;2023-11-19T02:25:25;96289.16;;;9.55;100.00
34328;BME280;20588;48.840;10.064;2023-11-19T02:28:01;96282.25;;;9.56;100.00
34328;BME280;20588;48.840;10.064;2023-11-19T02:30:27;96281.47;;;9.55;100.00
34328;BME280;20588;48.840;10.064;2023-11-19T02:32:57;96287.38;;;9.56;100.00
34328;BME280;20588;48.840;10.064;2023-11-19T02:35:25;96284.63;;;9.57;100.00
34328;BME280;20588;48.840;10.064;2023-11-19T02:37:52;96280.25;;;9.58;100.00
34328;BME280;20588;48.840;10.064;2023-11-19T02:40:18;96277.03;;;9.62;100.00
34328;BME280;20588;48.840;10.064;2023-11-19T02:42:44;96273.34;;;9.58;100.00
34328;BME280;20588;48.840;10.064;2023-11-19T02:45:10;96275.09;;;9.58;100.00
34328;BME280;20588;48.840;10.064;2023-11-19T02:47:43;96281.00;;;9.65;100.00
34328;BME280;20588;48.840;10.064;2023-11-19T02:50:10;96279.81;;;9.61;100.00
34328;BME280;20588;48.840;10.064;2023-11-19T02:52:44;96282.41;;;9.61;100.00
34328;BME280;20588;48.840;10.064;2023-11-19T02:55:11;96283.59;;;9.58;100.00
34328;BME280;20588;48.840;10.064;2023-11-19T02:57:43;96277.69;;;9.58;100.00
34328;BME280;20588;48.840;10.064;2023-11-19T03:00:16;96273.34;;;9.58;100.00
34328;BME280;20588;48.840;10.064;2023-11-19T03:02:43;96273.34;;;9.58;100.00
34328;BME280;20588;48.840;10.064;2023-11-19T03:05:13;96282.81;;;9.58;100.00
34328;BME280;20588;48.840;10.064;2023-11-19T03:07:41;96276.13;;;9.57;100.00
34328;BME280;20588;48.840;10.064;2023-11-19T03:10:11;96277.88;;;9.56;100.00
34328;BME280;20588;48.840;10.064;2023-11-19T03:12:40;96274.56;;;9.56;100.00
34328;BME280;20588;48.840;10.064;2023-11-19T03:15:07;96272.75;;;9.56;100.00
34328;BME280;20588;48.840;10.064;2023-11-19T03:17:36;96277.69;;;9.58;100.00
34328;BME280;20588;48.840;10.064;2023-11-19T03:20:05;96279.28;;;9.59;100.00
34328;BME280;20588;48.840;10.064;2023-11-19T03:22:32;96279.28;;;9.59;100.00
34328;BME280;20588;48.840;10.064;2023-11-19T03:25:01;96279.81;;;9.61;100.00
34328;BME280;20588;48.840;10.064;2023-11-19T03:27:27;96288.75;;;9.58;100.00
34328;BME280;20588;48.840;10.064;2023-11-19T03:29:53;96282.03;;;9.57;100.00
34328;BME280;20588;48.840;10.064;2023-11-19T03:32:19;96285.97;;;9.60;100.00
34328;BME280;20588;48.840;10.064;2023-11-19T03:34:45;96301.56;;;9.65;100.00
34328;BME280;20588;48.840;10.064;2023-11-19T03:37:11;96297.59;;;9.62;100.00
34328;BME280;20588;48.840;10.064;2023-11-19T03:39:41;96288.31;;;9.61;100.00
34328;BME280;20588;48.840;10.064;2023-11-19T03:42:07;96287.31;;;9.62;100.00
34328;BME280;20588;48.840;10.064;2023-11-19T03:44:33;96302.53;;;9.64;100.00
34328;BME280;20588;48.840;10.064;2023-11-19T03:46:59;96298.59;;;9.61;100.00
34328;BME280;20588;48.840;10.064;2023-11-19T03:49:25;96292.84;;;9.66;100.00
34328;BME280;20588;48.840;10.064;2023-11-19T03:51:51;96293.63;;;9.66;100.00
34328;BME280;20588;48.840;10.064;2023-11-19T03:54:17;96293.03;;;9.64;100.00
34328;BME280;20588;48.840;10.064;2023-11-19T03:56:43;96284.53;;;9.64;100.00
34328;BME280;20588;48.840;10.064;2023-11-19T03:59:09;96269.72;;;9.66;100.00
34328;BME280;20588;48.840;10.064;2023-11-19T04:01:35;96262.59;;;9.68;100.00
34328;BME280;20588;48.840;10.064;2023-11-19T04:04:03;96254.09;;;9.67;100.00
34328;BME280;20588;48.840;10.064;2023-11-19T04:06:29;96256.88;;;9.66;100.00
34328;BME280;20588;48.840;10.064;2023-11-19T04:08:55;96242.47;;;9.65;100.00
34328;BME280;20588;48.840;10.064;2023-11-19T04:11:21;96233.75;;;9.66;100.00
34328;BME280;20588;48.840;10.064;2023-11-19T04:13:47;96235.31;;;9.67;100.00
34328;BME280;20588;48.840;10.064;2023-11-19T04:16:13;96248.38;;;9.65;100.00
34328;BME280;20588;48.840;10.064;2023-11-19T04:18:40;96238.47;;;9.69;100.00
34328;BME280;20588;48.840;10.064;2023-11-19T04:21:09;96233.34;;;9.69;100.00
34328;BME280;20588;48.840;10.064;2023-11-19T04:23:35;96226.00;;;9.72;100.00
34328;BME280;20588;48.840;10.064;2023-11-19T04:26:04;96236.06;;;9.74;100.00
34328;BME280;20588;48.840;10.064;2023-11-19T04:28:31;96241.53;;;9.77;100.00
34328;BME280;20588;48.840;10.064;2023-11-19T04:30:57;96242.94;;;9.80;100.00
34328;BME280;20588;48.840;10.064;2023-11-19T04:33:23;96249.00;;;9.85;100.00
34328;BME280;20588;48.840;10.064;2023-11-19T04:35:49;96235.94;;;9.87;100.00
34328;BME280;20588;48.840;10.064;2023-11-19T04:38:15;96246.00;;;9.88;100.00
34328;BME280;20588;48.840;10.064;2023-11-19T04:40:41;96236.31;;;9.90;100.00
34328;BME280;20588;48.840;10.064;2023-11-19T04:43:07;96238.22;;;9.95;100.00
34328;BME280;20588;48.840;10.064;2023-11-19T04:45:33;96242.75;;;9.99;100.00
34328;BME280;20588;48.840;10.064;2023-11-19T04:48:00;96238.53;;;10.05;100.00
34328;BME280;20588;48.840;10.064;2023-11-19T04:50:26;96238.31;;;10.06;100.00
34328;BME280;20588;48.840;10.064;2023-11-19T04:52:53;96243.06;;;10.09;100.00
34328;BME280;20588;48.840;10.064;2023-11-19T04:55:20;96237.91;;;10.09;100.00
34328;BME280;20588;48.840;10.064;2023-11-19T04:57:46;96243.06;;;10.09;100.00
34328;BME280;20588;48.840;10.064;2023-11-19T05:00:12;96240.84;;;10.13;100.00
34328;BME280;20588;48.840;10.064;2023-11-19T05:02:39;96238.06;;;10.14;100.00
34328;BME280;20588;48.840;10.064;2023-11-19T05:05:05;96238.84;;;10.15;100.00
34328;BME280;20588;48.840;10.064;2023-11-19T05:07:31;96237.28;;;10.14;100.00
34328;BME280;20588;48.840;10.064;2023-11-19T05:09:57;96241.41;;;10.15;100.00
34328;BME280;20588;48.840;10.064;2023-11-19T05:12:24;96245.69;;;10.21;100.00
34328;BME280;20588;48.840;10.064;2023-11-19T05:14:50;96236.41;;;10.20;100.00
34328;BME280;20588;48.840;10.064;2023-11-19T05:17:19;96241.34;;;10.21;100.00
34328;BME280;20588;48.840;10.064;2023-11-19T05:19:46;96243.91;;;10.21;100.00
34328;BME280;20588;48.840;10.064;2023-11-19T05:22:13;96243.28;;;10.26;100.00
34328;BME280;20588;48.840;10.064;2023-11-19T05:24:39;96243.06;;;10.27;100.00
34328;BME280;20588;48.840;10.064;2023-11-19T05:27:06;96250.00;;;10.27;100.00
34328;BME280;20588;48.840;10.064;2023-11-19T05:29:34;96236.28;;;10.33;100.00
34328;BME280;20588;48.840;10.064;2023-11-19T05:32:00;96237.47;;;10.30;100.00
34328;BME280;20588;48.840;10.064;2023-11-19T05:34:27;96243.00;;;10.34;100.00
34328;BME280;20588;48.840;10.064;2023-11-19T05:36:54;96240.63;;;10.32;100.00
34328;BME280;20588;48.840;10.064;2023-11-19T05:39:20;96251.94;;;10.31;100.00
34328;BME280;20588;48.840;10.064;2023-11-19T05:41:46;96247.13;;;10.35;100.00
34328;BME280;20588;48.840;10.064;2023-11-19T05:44:12;96243.00;;;10.34;100.00
34328;BME280;20588;48.840;10.064;2023-11-19T05:46:38;96234.84;;;10.37;100.00
34328;BME280;20588;48.840;10.064;2023-11-19T05:49:08;96226.69;;;10.40;100.00
34328;BME280;20588;48.840;10.064;2023-11-19T05:51:40;96236.41;;;10.38;100.00
34328;BME280;20588;48.840;10.064;2023-11-19T05:54:08;96244.28;;;10.43;100.00
34328;BME280;20588;48.840;10.064;2023-11-19T05:56:34;96243.25;;;10.44;100.00
34328;BME280;20588;48.840;10.064;2023-11-19T05:59:00;96251.34;;;10.47;100.00
34328;BME280;20588;48.840;10.064;2023-11-19T06:01:31;96246.19;;;10.47;100.00
34328;BME280;20588;48.840;10.064;2023-11-19T06:03:57;96250.13;;;10.50;100.00
34328;BME280;20588;48.840;10.064;2023-11-19T06:06:23;96248.13;;;10.52;100.00
34328;BME280;20588;48.840;10.064;2023-11-19T06:08:49;96252.25;;;10.53;100.00
34328;BME280;20588;48.840;10.064;2023-11-19T06:11:16;96251.28;;;10.54;100.00
34328;BME280;20588;48.840;10.064;2023-11-19T06:13:44;96256.44;;;10.54;100.00
34328;BME280;20588;48.840;10.064;2023-11-19T06:16:11;96263.56;;;10.52;100.00
34328;BME280;20588;48.840;10.064;2023-11-19T06:18:38;96259.97;;;10.53;100.00
34328;BME280;20588;48.840;10.064;2023-11-19T06:21:04;96263.13;;;10.55;100.00
34328;BME280;20588;48.840;10.064;2023-11-19T06:23:31;96256.97;;;10.56;100.00
34328;BME280;20588;48.840;10.064;2023-11-19T06:25:57;96264.03;;;10.60;100.00
34328;BME280;20588;48.840;10.064;2023-11-19T06:28:23;96260.13;;;10.58;100.00
34328;BME280;20588;48.840;10.064;2023-11-19T06:30:49;96249.03;;;10.57;100.00
34328;BME280;20588;48.840;10.064;2023-11-19T06:33:15;96243.13;;;10.57;100.00
34328;BME280;20588;48.840;10.064;2023-11-19T06:35:41;96247.25;;;10.58;100.00
34328;BME280;20588;48.840;10.064;2023-11-19T06:38:07;96245.50;;;10.58;100.00
34328;BME280;20588;48.840;10.064;2023-11-19T06:40:34;96238.09;;;10.62;100.00
34328;BME280;20588;48.840;10.064;2023-11-19T06:43:03;96229.84;;;10.60;100.00
34328;BME280;20588;48.840;10.064;2023-11-19T06:45:29;96236.31;;;10.62;100.00
34328;BME280;20588;48.840;10.064;2023-11-19T06:47:55;96231.53;;;10.66;100.00
34328;BME280;20588;48.840;10.064;2023-11-19T06:50:21;96234.66;;;10.68;100.00
34328;BME280;20588;48.840;10.064;2023-11-19T06:52:47;96244.94;;;10.68;100.00
34328;BME280;20588;48.840;10.064;2023-11-19T06:55:15;96249.81;;;10.76;100.00
34328;BME280;20588;48.840;10.064;2023-11-19T06:57:41;96253.28;;;10.81;100.00
34328;BME280;20588;48.840;10.064;2023-11-19T07:00:09;96265.19;;;10.82;100.00
34328;BME280;20588;48.840;10.064;2023-11-19T07:02:37;96268.28;;;10.84;100.00
34328;BME280;20588;48.840;10.064;2023-11-19T07:05:03;96269.47;;;10.88;100.00
34328;BME280;20588;48.840;10.064;2023-11-19T07:07:31;96269.25;;;10.90;100.00
34328;BME280;20588;48.840;10.064;2023-11-19T07:09:58;96267.78;;;10.94;100.00
34328;BME280;20588;48.840;10.064;2023-11-19T07:12:24;96264.19;;;10.95;100.00
34328;BME280;20588;48.840;10.064;2023-11-19T07:14:52;96262.78;;;10.99;100.00
34328;BME280;20588;48.840;10.064;2023-11-19T07:17:19;96265.94;;;11.01;100.00
34328;BME280;20588;48.840;10.064;2023-11-19T07:19:46;96267.28;;;11.04;100.00
34328;BME280;20588;48.840;10.064;2023-11-19T07:22:13;96263.47;;;11.06;100.00
34328;BME280;20588;48.840;10.064;2023-11-19T07:24:39;96282.22;;;11.13;100.00
34328;BME280;20588;48.840;10.064;2023-11-19T07:27:07;96278.03;;;11.12;100.00
34328;BME280;20588;48.840;10.064;2023-11-19T07:29:35;96291.28;;;11.16;100.00
34328;BME280;20588;48.840;10.064;2023-11-19T07:32:01;96295.41;;;11.17;100.00
34328;BME280;20588;48.840;10.064;2023-11-19T07:34:28;96304.50;;;11.19;100.00
34328;BME280;20588;48.840;10.064;2023-11-19T07:36:55;96299.91;;;11.21;100.00
34328;BME280;20588;48.840;10.064;2023-11-19T07:39:25;96306.66;;;11.22;100.00
34328;BME280;20588;48.840;10.064;2023-11-19T07:41:51;96306.44;;;11.24;100.00
34328;BME280;20588;48.840;10.064;2023-11-19T07:44:17;96308.34;;;11.28;100.00
34328;BME280;20588;48.840;10.064;2023-11-19T07:46:43;96304.75;;;11.29;100.00
34328;BME280;20588;48.840;10.064;2023-11-19T07:49:10;96292.47;;;11.31;100.00
34328;BME280;20588;48.840;10.064;2023-11-19T07:51:36;96302.31;;;11.34;100.00
34328;BME280;20588;48.840;10.064;2023-11-19T07:54:03;96308.16;;;11.41;100.00
34328;BME280;20588;48.840;10.064;2023-11-19T07:56:30;96308.50;;;11.45;100.00
34328;BME280;20588;48.840;10.064;2023-11-19T07:58:56;96296.53;;;11.50;100.00
34328;BME280;20588;48.840;10.064;2023-11-19T08:01:22;96300.88;;;11.50;100.00
34328;BME280;20588;48.840;10.064;2023-11-19T08:03:49;96305.28;;;11.49;100.00
34328;BME280;20588;48.840;10.064;2023-11-19T08:06:15;96294.97;;;11.61;100.00
34328;BME280;20588;48.840;10.064;2023-11-19T08:08:41;96296.91;;;11.65;100.00
34328;BME280;20588;48.840;10.064;2023-11-19T08:11:07;96294.34;;;11.65;100.00
34328;BME280;20588;48.840;10.064;2023-11-19T08:13:33;96295.91;;;11.66;100.00
34328;BME280;20588;48.840;10.064;2023-11-19T08:15:59;96298.03;;;11.69;100.00
34328;BME280;20588;48.840;10.064;2023-11-19T08:18:25;96293.59;;;11.76;100.00
34328;BME280;20588;48.840;10.064;2023-11-19T08:20:51;96292.13;;;11.80;100.00
34328;BME280;20588;48.840;10.064;2023-11-19T08:23:20;96298.53;;;12.01;100.00
34328;BME280;20588;48.840;10.064;2023-11-19T08:25:46;96296.84;;;12.06;100.00
34328;BME280;20588;48.840;10.064;2023-11-19T08:28:12;96302.56;;;12.20;100.00
34328;BME280;20588;48.840;10.064;2023-11-19T08:30:38;96293.59;;;12.22;100.00
34328;BME280;20588;48.840;10.064;2023-11-19T08:33:05;96292.56;;;12.35;100.00
34328;BME280;20588;48.840;10.064;2023-11-19T08:35:32;96303.00;;;12.51;100.00
34328;BME280;20588;48.840;10.064;2023-11-19T08:37:59;96298.94;;;12.67;100.00
34328;BME280;20588;48.840;10.064;2023-11-19T08:40:25;96286.66;;;12.86;100.00
34328;BME280;20588;48.840;10.064;2023-11-19T08:42:55;96291.88;;;12.91;100.00
34328;BME280;20588;48.840;10.064;2023-11-19T08:45:22;96292.34;;;12.99;100.00
34328;BME280;20588;48.840;10.064;2023-11-19T08:47:48;96282.66;;;13.06;100.00
34328;BME280;20588;48.840;10.064;2023-11-19T08:50:14;96282.56;;;13.29;100.00
34328;BME280;20588;48.840;10.064;2023-11-19T08:52:40;96271.94;;;13.59;100.00
34328;BME280;20588;48.840;10.064;2023-11-19T08:55:06;96278.66;;;14.42;100.00
34328;BME280;20588;48.840;10.064;2023-11-19T09:17:01;96305.63;;;18.36;nan
34328;BME280;20588;48.840;10.064;2023-11-19T09:19:27;96316.84;;;18.47;nan
34328;BME280;20588;48.840;10.064;2023-11-19T09:21:53;96318.19;;;18.14;nan
34328;BME280;20588;48.840;10.064;2023-11-19T09:24:19;96320.75;;;17.59;nan
34328;BME280;20588;48.840;10.064;2023-11-19T09:26:45;96330.47;;;17.02;nan
34328;BME280;20588;48.840;10.064;2023-11-19T09:29:11;96328.50;;;16.31;nan
34328;BME280;20588;48.840;10.064;2023-11-19T09:31:40;96326.59;;;15.84;nan
34328;BME280;20588;48.840;10.064;2023-11-19T09:34:06;96336.41;;;15.51;nan
34328;BME280;20588;48.840;10.064;2023-11-19T09:36:32;96346.50;;;15.26;nan
34328;BME280;20588;48.840;10.064;2023-11-19T09:38:58;96320.97;;;14.91;nan
34328;BME280;20588;48.840;10.064;2023-11-19T09:41:26;96321.56;;;14.77;nan
34328;BME280;20588;48.840;10.064;2023-11-19T09:43:53;96319.72;;;15.42;nan
34328;BME280;20588;48.840;10.064;2023-11-19T09:46:20;96312.53;;;16.49;nan
34328;BME280;20588;48.840;10.064;2023-11-19T09:48:46;96307.72;;;18.49;nan
34328;BME280;20588;48.840;10.064;2023-11-19T09:51:14;96308.47;;;20.34;nan
34328;BME280;20588;48.840;10.064;2023-11-19T09:53:41;96308.47;;;20.86;nan
34328;BME280;20588;48.840;10.064;2023-11-19T09:56:07;96314.19;;;21.12;nan
34328;BME280;20588;48.840;10.064;2023-11-19T09:58:34;96305.66;;;21.43;nan
34328;BME280;20588;48.840;10.064;2023-11-19T10:01:00;96304.78;;;22.04;nan
34328;BME280;20588;48.840;10.064;2023-11-19T10:03:32;96312.59;;;21.72;nan
34328;BME280;20588;48.840;10.064;2023-11-19T10:05:58;96308.34;;;20.73;nan
34328;BME280;20588;48.840;10.064;2023-11-19T10:08:26;96301.38;;;19.78;nan
34328;BME280;20588;48.840;10.064;2023-11-19T10:10:52;96310.69;;;18.96;nan
34328;BME280;20588;48.840;10.064;2023-11-19T10:13:18;96320.50;;;18.51;nan
34328;BME280;20588;48.840;10.064;2023-11-19T10:15:45;96308.81;;;18.08;nan
34328;BME280;20588;48.840;10.064;2023-11-19T10:18:13;96314.03;;;17.93;nan
34328;BME280;20588;48.840;10.064;2023-11-19T10:20:42;96321.81;;;17.73;nan
34328;BME280;20588;48.840;10.064;2023-11-19T10:23:09;96328.47;;;17.39;nan
34328;BME280;20588;48.840;10.064;2023-11-19T10:25:37;96341.91;;;17.06;nan
34328;BME280;20588;48.840;10.064;2023-11-19T10:28:03;96318.34;;;16.66;nan
34328;BME280;20588;48.840;10.064;2023-11-19T10:30:30;96325.47;;;16.44;nan
34328;BME280;20588;48.840;10.064;2023-11-19T10:33:12;96315.00;;;17.57;nan
34328;BME280;20588;48.840;10.064;2023-11-19T10:35:56;96303.75;;;20.08;nan
34328;BME280;20588;48.840;10.064;2023-11-19T10:38:23;96309.00;;;21.07;nan
34328;BME280;20588;48.840;10.064;2023-11-19T10:40:51;96305.19;;;22.11;nan
34328;BME280;20588;48.840;10.064;2023-11-19T10:43:21;96301.09;;;24.42;nan
34328;BME280;20588;48.840;10.064;2023-11-19T10:45:49;96301.28;;;25.92;nan
34328;BME280;20588;48.840;10.064;2023-11-19T10:48:15;96296.97;;;25.36;nan
34328;BME280;20588;48.840;10.064;2023-11-19T10:50:43;96288.13;;;24.15;nan
34328;BME280;20588;48.840;10.064;2023-11-19T10:53:11;96293.03;;;22.74;nan
34328;BME280;20588;48.840;10.064;2023-11-19T10:55:41;96279.41;;;22.45;nan
34328;BME280;20588;48.840;10.064;2023-11-19T10:58:09;96275.66;;;22.91;nan
34328;BME280;20588;48.840;10.064;2023-11-19T11:00:45;96279.66;;;22.16;nan
34328;BME280;20588;48.840;10.064;2023-11-19T11:03:23;96278.91;;;21.28;nan
34328;BME280;20588;48.840;10.064;2023-11-19T11:05:52;96276.72;;;20.93;nan
34328;BME280;20588;48.840;10.064;2023-11-19T11:08:19;96273.72;;;22.11;nan
34328;BME280;20588;48.840;10.064;2023-11-19T11:10:54;96275.59;;;21.92;nan
34328;BME280;20588;48.840;10.064;2023-11-19T11:13:23;96264.31;;;21.22;nan
34328;BME280;20588;48.840;10.064;2023-11-19T11:15:56;96265.72;;;20.49;nan
34328;BME280;20588;48.840;10.064;2023-11-19T11:18:24;96269.09;;;20.26;nan
34328;BME280;20588;48.840;10.064;2023-11-19T11:24:28;96254.41;;;23.95;nan
34328;BME280;20588;48.840;10.064;2023-11-19T11:27:22;96257.06;;;26.06;nan
34328;BME280;20588;48.840;10.064;2023-11-19T11:32:51;96253.84;;;27.54;nan
34328;BME280;20588;48.840;10.064;2023-11-19T11:38:09;96264.44;;;27.05;nan
34328;BME280;20588;48.840;10.064;2023-11-19T11:40:36;96250.75;;;25.39;nan
34328;BME280;20588;48.840;10.064;2023-11-19T11:43:02;96257.75;;;23.65;nan
34328;BME280;20588;48.840;10.064;2023-11-19T11:45:40;96258.00;;;22.11;nan
34328;BME280;20588;48.840;10.064;2023-11-19T11:48:21;96257.78;;;21.75;nan
34328;BME280;20588;48.840;10.064;2023-11-19T11:50:54;96259.88;;;21.22;nan
34328;BME280;20588;48.840;10.064;2023-11-19T11:53:21;96254.25;;;20.68;nan
34328;BME280;20588;48.840;10.064;2023-11-19T11:58:26;96254.91;;;21.90;nan
34328;BME280;20588;48.840;10.064;2023-11-19T12:00:52;96247.91;;;22.31;nan
34328;BME280;20588;48.840;10.064;2023-11-19T12:03:23;96248.22;;;22.70;nan
34328;BME280;20588;48.840;10.064;2023-11-19T12:05:49;96235.28;;;22.20;nan
34328;BME280;20588;48.840;10.064;2023-11-19T12:08:19;96245.28;;;21.35;nan
34328;BME280;20588;48.840;10.064;2023-11-19T12:10:54;96242.25;;;20.44;nan
34328;BME280;20588;48.840;10.064;2023-11-19T12:13:23;96234.56;;;19.72;nan
34328;BME280;20588;48.840;10.064;2023-11-19T12:18:30;96225.81;;;18.65;nan
34328;BME280;20588;48.840;10.064;2023-11-19T12:21:00;96232.19;;;18.19;nan
34328;BME280;20588;48.840;10.064;2023-11-19T12:23:30;96237.97;;;17.71;nan
34328;BME280;20588;48.840;10.064;2023-11-19T12:25:57;96229.59;;;17.24;nan
34328;BME280;20588;48.840;10.064;2023-11-19T12:28:24;96223.31;;;16.90;nan
34328;BME280;20588;48.840;10.064;2023-11-19T12:30:52;96221.16;;;16.67;nan
34328;BME280;20588;48.840;10.064;2023-11-19T12:33:21;96224.22;;;16.49;nan
34328;BME280;20588;48.840;10.064;2023-11-19T12:35:48;96220.69;;;16.23;nan
34328;BME280;20588;48.840;10.064;2023-11-19T12:38:25;96216.00;;;16.20;nan
34328;BME280;20588;48.840;10.064;2023-11-19T12:41:08;96216.84;;;16.36;nan
34328;BME280;20588;48.840;10.064;2023-11-19T12:43:37;96212.13;;;16.27;nan
34328;BME280;20588;48.840;10.064;2023-11-19T12:46:23;96212.69;;;16.35;nan
34328;BME280;20588;48.840;10.064;2023-11-19T12:48:49;96205.22;;;16.48;nan
34328;BME280;20588;48.840;10.064;2023-11-19T12:51:16;96202.44;;;16.65;nan
34328;BME280;20588;48.840;10.064;2023-11-19T12:53:52;96203.06;;;17.02;nan
34328;BME280;20588;48.840;10.064;2023-11-19T12:56:23;96204.63;;;17.33;nan
34328;BME280;20588;48.840;10.064;2023-11-19T12:58:50;96202.59;;;17.50;nan
34328;BME280;20588;48.840;10.064;2023-11-19T13:01:19;96192.44;;;17.73;nan
34328;BME280;20588;48.840;10.064;2023-11-19T13:03:46;96183.84;;;17.78;nan
34328;BME280;20588;48.840;10.064;2023-11-19T13:06:14;96195.03;;;17.68;nan
34328;BME280;20588;48.840;10.064;2023-11-19T13:08:48;96182.03;;;17.48;nan
34328;BME280;20588;48.840;10.064;2023-11-19T13:11:34;96180.72;;;17.26;nan
34328;BME280;20588;48.840;10.064;2023-11-19T13:14:04;96174.72;;;17.05;nan
34328;BME280;20588;48.840;10.064;2023-11-19T13:16:31;96169.75;;;16.84;nan
34328;BME280;20588;48.840;10.064;2023-11-19T13:18:58;96165.78;;;16.66;nan
34328;BME280;20588;48.840;10.064;2023-11-19T13:21:25;96168.66;;;16.70;nan
34328;BME280;20588;48.840;10.064;2023-11-19T13:23:52;96163.28;;;17.06;nan
34328;BME280;20588;48.840;10.064;2023-11-19T13:26:18;96156.78;;;17.29;nan
34328;BME280;20588;48.840;10.064;2023-11-19T13:28:44;96162.00;;;17.34;nan